createdAt,value
2022-09-21T00:00:05.349Z,43.53
2022-09-21T00:02:35.929Z,43.51
2022-09-21T00:05:05.873Z,44.24
2022-09-21T00:07:36.020Z,43.86
2022-09-21T00:10:06.569Z,45.11
2022-09-21T00:12:39.898Z,43.87
2022-09-21T00:15:12.695Z,43.47
2022-09-21T00:17:43.402Z,43.66
2022-09-21T00:20:13.880Z,43.38
2022-09-21T00:22:44.334Z,43.52
2022-09-21T00:25:14.801Z,43.62
2022-09-21T00:27:45.121Z,43.67
2022-09-21T00:30:15.083Z,43.13
2022-09-21T00:32:45.901Z,43.42
2022-09-21T00:35:16.131Z,42.85
2022-09-21T00:37:46.996Z,42.75
2022-09-21T00:40:17.408Z,42.66
2022-09-21T00:42:48.040Z,42.80
2022-09-21T00:45:28.282Z,42.83
2022-09-21T00:47:58.713Z,42.68
2022-09-21T00:50:31.558Z,42.97
2022-09-21T00:53:02.528Z,42.21
2022-09-21T00:55:45.018Z,42.80
2022-09-21T00:58:25.527Z,42.68
2022-09-21T01:00:57.647Z,42.57
2022-09-21T01:03:28.263Z,43.11
2022-09-21T01:06:00.072Z,42.98
2022-09-21T01:08:31.887Z,43.04
2022-09-21T01:11:39.410Z,42.88
2022-09-21T01:14:22.312Z,42.66
2022-09-21T01:16:55.707Z,42.79
2022-09-21T01:19:44.159Z,43.03
2022-09-21T01:22:45.333Z,43.06
2022-09-21T01:25:39.998Z,42.87
2022-09-21T01:28:42.938Z,42.74
2022-09-21T01:31:19.201Z,42.82
2022-09-21T01:33:56.623Z,42.82
2022-09-21T01:36:32.972Z,42.84
2022-09-21T01:39:15.680Z,42.85
2022-09-21T01:41:48.996Z,43.01
2022-09-21T01:44:21.169Z,42.88
2022-09-21T01:46:54.324Z,42.57
2022-09-21T01:49:48.195Z,42.69
2022-09-21T01:52:44.710Z,42.58
2022-09-21T01:55:20.811Z,41.36
2022-09-21T01:58:03.965Z,41.93
2022-09-21T02:00:36.781Z,41.87
2022-09-21T02:03:24.086Z,41.85
2022-09-21T02:05:55.128Z,42.52
2022-09-21T02:08:29.476Z,41.57
2022-09-21T02:11:02.329Z,41.56
2022-09-21T02:13:46.235Z,41.56
2022-09-21T02:16:37.879Z,41.91
2022-09-21T02:19:33.544Z,41.67
2022-09-21T02:22:13.944Z,41.36
2022-09-21T02:24:53.458Z,40.73
2022-09-21T02:27:44.764Z,40.40
2022-09-21T02:30:22.987Z,41.14
2022-09-21T02:33:14.418Z,41.31
2022-09-21T02:36:14.113Z,41.14
2022-09-21T02:38:58.838Z,40.71
2022-09-21T02:41:36.085Z,40.73
2022-09-21T02:44:18.314Z,40.96
2022-09-21T02:47:27.285Z,41.13
2022-09-21T02:50:04.849Z,40.85
2022-09-21T02:52:37.125Z,39.14
2022-09-21T02:55:08.913Z,40.52
2022-09-21T02:57:40.363Z,39.73
2022-09-21T03:00:10.140Z,39.64
2022-09-21T03:02:42.687Z,40.02
2022-09-21T03:05:13.544Z,39.97
2022-09-21T03:07:44.155Z,40.04
2022-09-21T03:10:15.047Z,40.62
2022-09-21T03:12:46.013Z,39.89
2022-09-21T03:15:19.504Z,39.84
2022-09-21T03:17:49.577Z,39.17
2022-09-21T03:20:20.598Z,39.83
2022-09-21T03:22:50.788Z,39.49
2022-09-21T03:25:22.752Z,38.99
2022-09-21T03:27:55.521Z,39.39
2022-09-21T03:30:27.582Z,39.53
2022-09-21T03:32:58.384Z,39.34
2022-09-21T03:35:30.450Z,40.20
2022-09-21T03:38:00.876Z,39.99
2022-09-21T03:40:31.551Z,39.84
2022-09-21T03:43:02.600Z,40.40
2022-09-21T03:45:32.904Z,40.34
2022-09-21T03:48:04.009Z,40.39
2022-09-21T03:50:35.349Z,39.83
2022-09-21T03:53:06.947Z,39.46
2022-09-21T03:55:38.440Z,39.68
2022-09-21T03:58:08.799Z,39.64
2022-09-21T04:00:40.516Z,39.91
2022-09-21T04:03:10.282Z,39.41
2022-09-21T04:05:41.365Z,38.69
2022-09-21T04:08:11.422Z,38.61
2022-09-21T04:10:44.941Z,39.27
2022-09-21T04:13:16.114Z,38.48
2022-09-21T04:15:46.472Z,38.86
2022-09-21T04:18:17.235Z,38.64
2022-09-21T04:20:47.484Z,38.93
2022-09-21T04:23:17.601Z,38.18
2022-09-21T04:25:49.182Z,38.07
2022-09-21T04:28:19.354Z,38.68
2022-09-21T04:30:49.549Z,37.56
2022-09-21T04:33:19.609Z,38.22
2022-09-21T04:35:50.046Z,37.13
2022-09-21T04:38:20.173Z,38.24
2022-09-21T04:40:58.881Z,39.06
2022-09-21T04:43:28.965Z,37.08
2022-09-21T04:45:59.404Z,37.82
2022-09-21T04:48:29.416Z,37.94
2022-09-21T04:51:01.600Z,37.08
2022-09-21T04:53:32.471Z,37.97
2022-09-21T04:56:02.761Z,38.09
2022-09-21T04:58:32.655Z,36.14
2022-09-21T05:01:03.740Z,36.94
2022-09-21T05:03:34.169Z,36.75
2022-09-21T05:06:04.439Z,35.03
2022-09-21T05:08:52.420Z,36.84
2022-09-21T05:11:22.568Z,37.13
2022-09-21T05:13:53.576Z,37.40
2022-09-21T05:16:24.866Z,37.57
2022-09-21T05:18:58.749Z,36.12
2022-09-21T05:21:32.172Z,36.78
2022-09-21T05:24:02.446Z,37.56
2022-09-21T05:26:32.636Z,36.53
2022-09-21T05:29:02.936Z,36.13
2022-09-21T05:31:47.148Z,38.07
2022-09-21T05:34:26.032Z,36.65
2022-09-21T05:37:16.556Z,38.21
2022-09-21T05:39:46.997Z,36.56
2022-09-21T05:42:17.617Z,37.27
2022-09-21T05:44:50.545Z,37.05
2022-09-21T05:47:42.079Z,37.08
2022-09-21T05:50:21.098Z,38.02
2022-09-21T05:53:08.367Z,37.95
2022-09-21T05:56:00.173Z,37.57
2022-09-21T05:59:00.891Z,37.87
2022-09-21T06:01:33.350Z,36.98
2022-09-21T06:04:04.484Z,36.15
2022-09-21T06:06:34.647Z,36.91
2022-09-21T06:09:04.696Z,35.74
2022-09-21T06:11:35.093Z,34.85
2022-09-21T06:14:05.476Z,35.14
2022-09-21T06:16:43.560Z,34.82
2022-09-21T06:19:15.399Z,35.29
2022-09-21T06:21:48.806Z,33.63
2022-09-21T06:24:25.739Z,33.37
2022-09-21T06:26:57.459Z,34.14
2022-09-21T06:29:27.614Z,34.34
2022-09-21T06:31:58.260Z,34.61
2022-09-21T06:34:28.944Z,34.36
2022-09-21T06:37:00.043Z,33.87
2022-09-21T06:39:30.606Z,34.01
2022-09-21T06:42:00.974Z,33.30
2022-09-21T06:44:32.530Z,33.41
2022-09-21T06:47:03.226Z,33.35
2022-09-21T06:49:33.645Z,33.30
2022-09-21T06:52:04.007Z,34.17
2022-09-21T06:54:37.342Z,34.64
2022-09-21T06:57:07.951Z,35.28
2022-09-21T06:59:39.236Z,35.04
2022-09-21T07:02:10.380Z,36.39
2022-09-21T07:04:41.378Z,35.38
2022-09-21T07:07:11.683Z,35.48
2022-09-21T07:12:35.825Z,35.17
2022-09-21T07:15:08.430Z,34.74
2022-09-21T07:17:41.341Z,34.04
2022-09-21T07:20:12.480Z,34.45
2022-09-21T07:22:42.898Z,34.50
2022-09-21T07:25:13.563Z,34.78
2022-09-21T07:27:44.824Z,34.64
2022-09-21T07:30:14.966Z,34.67
2022-09-21T07:32:45.408Z,34.80
2022-09-21T07:35:15.481Z,34.96
2022-09-21T07:37:47.836Z,34.33
2022-09-21T07:40:21.831Z,35.05
2022-09-21T07:42:53.879Z,36.54
2022-09-21T07:45:24.077Z,34.53
2022-09-21T07:47:58.533Z,34.75
2022-09-21T07:50:29.225Z,35.09
2022-09-21T07:53:02.009Z,34.86
2022-09-21T07:55:33.536Z,34.74
2022-09-21T07:58:22.049Z,34.68
2022-09-21T08:00:52.938Z,35.29
2022-09-21T08:03:22.569Z,34.30
2022-09-21T08:05:54.865Z,35.63
2022-09-21T08:08:24.921Z,34.85
2022-09-21T08:10:56.019Z,34.74
2022-09-21T08:13:27.794Z,34.11
2022-09-21T08:16:02.871Z,35.78
2022-09-21T08:18:33.546Z,34.84
2022-09-21T08:21:04.660Z,33.72
2022-09-21T08:23:35.836Z,35.49
2022-09-21T08:26:08.956Z,34.69
2022-09-21T08:28:41.582Z,34.80
2022-09-21T08:31:12.645Z,35.90
2022-09-21T08:33:43.336Z,34.93
2022-09-21T08:36:13.718Z,34.79
2022-09-21T08:38:43.957Z,35.45
2022-09-21T08:41:37.320Z,36.29
2022-09-21T08:44:19.552Z,35.77
2022-09-21T08:47:07.257Z,35.72
2022-09-21T08:49:42.161Z,35.74
2022-09-21T08:52:19.975Z,35.58
2022-09-21T08:54:59.614Z,34.80
2022-09-21T08:57:37.890Z,35.97
2022-09-21T09:00:17.048Z,35.83
2022-09-21T09:03:13.817Z,34.94
2022-09-21T09:05:52.458Z,36.05
2022-09-21T09:08:34.746Z,35.48
2022-09-21T09:11:21.008Z,36.42
2022-09-21T09:13:54.211Z,36.15
2022-09-21T09:17:14.113Z,36.39
2022-09-21T09:20:00.258Z,36.68
2022-09-21T09:22:39.180Z,36.23
2022-09-21T09:25:19.516Z,35.83
2022-09-21T09:27:56.801Z,35.42
2022-09-21T09:30:32.324Z,35.98
2022-09-21T09:33:23.696Z,36.18
2022-09-21T09:36:08.005Z,36.66
2022-09-21T09:39:02.146Z,36.43
2022-09-21T09:41:50.421Z,36.50
2022-09-21T09:44:40.345Z,36.86
2022-09-21T09:47:23.122Z,36.61
2022-09-21T09:50:17.320Z,37.18
2022-09-21T09:52:50.765Z,37.05
2022-09-21T09:55:46.045Z,36.91
2022-09-21T09:58:26.827Z,37.23
2022-09-21T10:01:06.029Z,37.81
2022-09-21T10:03:48.466Z,37.57
2022-09-21T10:06:50.093Z,37.64
2022-09-21T10:09:37.340Z,37.80
2022-09-21T10:12:27.195Z,37.74
2022-09-21T10:15:02.162Z,37.95
2022-09-21T10:17:33.729Z,38.02
2022-09-21T10:20:07.651Z,38.02
2022-09-21T10:22:37.771Z,38.09
2022-09-21T10:25:09.978Z,37.54
2022-09-21T10:27:45.150Z,37.46
2022-09-21T10:30:33.211Z,37.91
2022-09-21T10:33:04.051Z,37.86
2022-09-21T10:35:35.841Z,38.23
2022-09-21T10:38:22.083Z,38.23
2022-09-21T10:40:53.010Z,38.33
2022-09-21T10:43:37.619Z,37.85
2022-09-21T10:46:10.442Z,38.60
2022-09-21T10:48:41.087Z,38.32
2022-09-21T10:51:30.492Z,38.31
2022-09-21T10:54:06.017Z,38.71
2022-09-21T10:56:36.322Z,38.58
2022-09-21T10:59:37.575Z,38.33
2022-09-21T11:02:31.012Z,38.77
2022-09-21T11:05:07.561Z,39.60
2022-09-21T11:08:07.527Z,38.95
2022-09-21T11:10:52.811Z,39.27
2022-09-21T11:13:33.149Z,39.29
2022-09-21T11:16:28.539Z,39.07
2022-09-21T11:19:20.250Z,39.43
2022-09-21T11:22:03.146Z,40.24
2022-09-21T11:24:51.546Z,39.83
2022-09-21T11:27:45.312Z,39.37
2022-09-21T11:30:18.432Z,39.89
2022-09-21T11:32:48.554Z,40.15
2022-09-21T11:35:50.156Z,39.94
2022-09-21T11:38:21.088Z,41.40
2022-09-21T11:41:15.517Z,40.58
2022-09-21T11:44:19.268Z,40.60
2022-09-21T11:47:07.222Z,41.53
2022-09-21T11:49:59.019Z,41.07
2022-09-21T11:53:04.501Z,40.83
2022-09-21T11:56:03.421Z,40.85
2022-09-21T11:58:59.127Z,41.07
2022-09-21T12:02:03.527Z,41.03
2022-09-21T12:04:44.820Z,41.42
2022-09-21T12:07:43.717Z,41.88
2022-09-21T12:10:39.767Z,41.53
2022-09-21T12:13:34.157Z,40.93
2022-09-21T12:16:20.775Z,42.33
2022-09-21T12:19:03.525Z,41.32
2022-09-21T12:21:39.280Z,42.08
2022-09-21T12:24:31.992Z,41.38
2022-09-21T12:27:12.325Z,42.57
2022-09-21T12:29:49.183Z,42.21
2022-09-21T12:32:24.199Z,41.57
2022-09-21T12:35:01.252Z,42.17
2022-09-21T12:37:46.812Z,41.88
2022-09-21T12:40:29.042Z,42.89
2022-09-21T12:43:12.965Z,42.24
2022-09-21T12:45:53.627Z,42.27
2022-09-21T12:48:36.389Z,42.28
2022-09-21T12:51:09.998Z,43.88
2022-09-21T12:53:50.637Z,43.25
2022-09-21T12:56:32.468Z,42.76
2022-09-21T12:59:28.692Z,42.75
2022-09-21T13:02:17.655Z,43.12
2022-09-21T13:05:25.817Z,43.05
2022-09-21T13:08:16.708Z,43.60
2022-09-21T13:11:09.720Z,43.46
2022-09-21T13:13:58.689Z,44.63
2022-09-21T13:16:40.171Z,43.88
2022-09-21T13:19:16.621Z,43.33
2022-09-21T13:21:47.166Z,44.19
2022-09-21T13:24:32.522Z,43.32
2022-09-21T13:27:06.555Z,44.11
2022-09-21T13:29:42.097Z,43.87
2022-09-21T13:32:15.211Z,43.60
2022-09-21T13:34:46.800Z,44.45
2022-09-21T13:37:27.373Z,44.81
2022-09-21T13:40:17.643Z,42.87
2022-09-21T13:42:51.427Z,44.01
2022-09-21T13:45:22.884Z,44.12
2022-09-21T13:48:24.009Z,42.93
2022-09-21T13:50:59.381Z,44.87
2022-09-21T13:53:39.833Z,43.76
2022-09-21T13:56:23.917Z,43.27
2022-09-21T13:58:58.826Z,44.52
2022-09-21T14:01:47.219Z,42.78
2022-09-21T14:04:38.332Z,42.95
2022-09-21T14:07:10.567Z,44.07
2022-09-21T14:09:55.519Z,44.06
2022-09-21T14:12:29.858Z,43.72
2022-09-21T14:15:23.294Z,43.33
2022-09-21T14:18:22.981Z,43.45
2022-09-21T14:21:20.730Z,43.59
2022-09-21T14:24:09.180Z,44.01
2022-09-21T14:26:42.843Z,44.02
2022-09-21T14:29:37.629Z,43.83
2022-09-21T14:32:18.159Z,44.71
2022-09-21T14:34:51.132Z,44.61
2022-09-21T14:38:02.410Z,43.56
2022-09-21T14:40:43.729Z,43.49
2022-09-21T14:43:29.947Z,43.86
2022-09-21T14:46:13.333Z,43.95
2022-09-21T14:48:55.264Z,45.04
2022-09-21T14:52:04.205Z,44.05
2022-09-21T14:54:47.814Z,44.06
2022-09-21T14:57:45.964Z,44.03
2022-09-21T15:00:27.877Z,44.79
2022-09-21T15:03:23.918Z,43.95
2022-09-21T15:06:35.492Z,43.26
2022-09-21T15:09:56.824Z,43.20
2022-09-21T15:12:51.714Z,43.37
2022-09-21T15:15:47.783Z,43.67
2022-09-21T15:18:22.852Z,44.10
2022-09-21T15:21:05.693Z,43.48
2022-09-21T15:23:42.269Z,43.20
2022-09-21T15:26:31.350Z,43.87
2022-09-21T15:29:18.394Z,44.91
2022-09-21T15:31:49.569Z,44.91
2022-09-21T15:34:20.068Z,45.05
2022-09-21T15:36:54.389Z,45.42
2022-09-21T15:39:28.310Z,45.13
2022-09-21T15:42:23.884Z,43.90
2022-09-21T15:45:07.501Z,44.63
2022-09-21T15:47:37.995Z,45.01
2022-09-21T15:50:16.077Z,44.99
2022-09-21T15:52:54.111Z,44.73
2022-09-21T15:55:25.328Z,45.55
2022-09-21T15:57:59.448Z,44.99
2022-09-21T16:00:33.425Z,45.37
2022-09-21T16:03:21.623Z,44.40
2022-09-21T16:05:59.425Z,45.84
2022-09-21T16:08:39.872Z,45.51
2022-09-21T16:11:32.948Z,44.35
2022-09-21T16:14:39.174Z,44.90
2022-09-21T16:17:15.434Z,46.86
2022-09-21T16:19:52.958Z,48.82
2022-09-21T16:22:51.394Z,45.93
2022-09-21T16:25:38.528Z,46.92
2022-09-21T16:28:42.075Z,45.84
2022-09-21T16:31:33.266Z,46.06
2022-09-21T16:34:11.486Z,48.18
2022-09-21T16:36:43.518Z,48.99
2022-09-21T16:39:15.853Z,49.54
2022-09-21T16:41:56.589Z,49.14
2022-09-21T16:44:28.647Z,49.84
2022-09-21T16:47:01.928Z,49.57
2022-09-21T16:49:36.970Z,49.85
2022-09-21T16:52:09.906Z,51.37
2022-09-21T16:54:40.311Z,51.19
2022-09-21T16:57:12.717Z,50.97
2022-09-21T16:59:43.083Z,50.73
2022-09-21T17:02:15.499Z,51.43
2022-09-21T17:04:46.466Z,51.60
2022-09-21T17:07:19.257Z,51.37
2022-09-21T17:09:49.663Z,51.69
2022-09-21T17:12:20.659Z,52.33
2022-09-21T17:14:52.948Z,52.63
2022-09-21T17:17:28.078Z,51.21
2022-09-21T17:19:58.202Z,51.45
2022-09-21T17:22:30.912Z,51.94
2022-09-21T17:25:02.025Z,53.46
2022-09-21T17:27:33.444Z,53.32
2022-09-21T17:30:05.619Z,52.06
2022-09-21T17:32:38.601Z,51.28
2022-09-21T17:35:41.427Z,49.77
2022-09-21T17:38:14.538Z,51.88
2022-09-21T17:40:45.126Z,52.20
2022-09-21T17:43:34.493Z,50.21
2022-09-21T17:46:18.158Z,50.45
2022-09-21T17:48:48.629Z,52.11
2022-09-21T17:51:38.983Z,51.99
2022-09-21T17:54:09.470Z,51.97
2022-09-21T17:56:46.205Z,51.54
2022-09-21T17:59:37.084Z,51.79
2022-09-21T18:02:28.146Z,51.24
2022-09-21T18:05:05.187Z,52.02
2022-09-21T18:07:36.244Z,51.96
2022-09-21T18:10:07.593Z,52.03
2022-09-21T18:12:57.598Z,51.15
2022-09-21T18:15:52.807Z,50.79
2022-09-21T18:18:52.273Z,50.34
2022-09-21T18:21:26.575Z,52.24
2022-09-21T18:24:21.024Z,50.22
2022-09-21T18:26:53.853Z,52.13
2022-09-21T18:29:41.245Z,51.77
2022-09-21T18:32:35.931Z,50.84
2022-09-21T18:35:12.046Z,51.06
2022-09-21T18:38:14.559Z,50.40
2022-09-21T18:41:35.285Z,50.10
2022-09-21T18:44:26.762Z,49.87
2022-09-21T18:47:16.858Z,50.14
2022-09-21T18:49:51.082Z,51.21
2022-09-21T18:52:31.404Z,51.62
2022-09-21T18:55:02.340Z,51.77
2022-09-21T18:57:33.822Z,52.37
2022-09-21T19:00:05.007Z,51.77
2022-09-21T19:02:35.616Z,50.38
2022-09-21T19:05:06.727Z,51.47
2022-09-21T19:07:40.878Z,51.05
2022-09-21T19:10:22.924Z,50.44
2022-09-21T19:13:28.541Z,49.73
2022-09-21T19:16:33.547Z,49.35
2022-09-21T19:19:53.717Z,49.91
2022-09-21T19:22:54.992Z,50.09
2022-09-21T19:25:49.902Z,49.95
2022-09-21T19:28:50.633Z,50.39
2022-09-21T19:31:21.293Z,51.51
2022-09-21T19:33:51.962Z,51.89
2022-09-21T19:36:25.532Z,51.53
2022-09-21T19:38:55.934Z,52.46
2022-09-21T19:41:46.153Z,51.96
2022-09-21T19:44:55.608Z,50.66
2022-09-21T19:47:39.234Z,50.79
2022-09-21T19:50:19.792Z,50.67
2022-09-21T19:52:50.230Z,52.01
2022-09-21T19:55:41.919Z,50.67
2022-09-21T19:58:30.335Z,51.86
2022-09-21T20:01:00.792Z,51.32
2022-09-21T20:03:41.819Z,51.04
2022-09-21T20:06:19.726Z,52.31
2022-09-21T20:09:24.128Z,50.96
2022-09-21T20:11:56.948Z,52.35
2022-09-21T20:14:41.571Z,50.75
2022-09-21T20:17:18.239Z,51.58
2022-09-21T20:20:13.327Z,50.28
2022-09-21T20:22:44.290Z,51.70
2022-09-21T20:25:21.407Z,51.24
2022-09-21T20:27:54.606Z,52.55
2022-09-21T20:30:34.213Z,52.28
2022-09-21T20:33:13.464Z,51.12
2022-09-21T20:35:45.478Z,53.23
2022-09-21T20:38:16.424Z,52.96
2022-09-21T20:40:47.518Z,53.15
2022-09-21T20:43:17.843Z,52.69
2022-09-21T20:45:50.558Z,53.36
2022-09-21T20:48:21.337Z,53.14
2022-09-21T20:50:52.524Z,53.44
2022-09-21T20:53:23.089Z,52.92
2022-09-21T20:55:59.194Z,52.50
2022-09-21T20:58:29.800Z,52.97
2022-09-21T21:01:06.087Z,52.35
2022-09-21T21:03:36.394Z,53.88
2022-09-21T21:06:24.721Z,54.11
2022-09-21T21:08:54.979Z,55.98
2022-09-21T21:11:26.877Z,55.75
2022-09-21T21:13:58.399Z,54.05
2022-09-21T21:16:28.822Z,53.93
2022-09-21T21:18:59.141Z,54.51
2022-09-21T21:21:29.769Z,53.77
2022-09-21T21:24:17.984Z,53.74
2022-09-21T21:27:01.908Z,53.65
2022-09-21T21:29:34.147Z,53.58
2022-09-21T21:32:05.227Z,53.88
2022-09-21T21:34:35.377Z,54.31
2022-09-21T21:37:05.707Z,54.54
2022-09-21T21:39:35.727Z,53.80
2022-09-21T21:42:09.047Z,54.41
2022-09-21T21:44:40.171Z,55.06
2022-09-21T21:47:38.124Z,55.35
2022-09-21T21:50:03.602Z,53.91
2022-09-21T21:52:34.182Z,53.63
2022-09-21T21:55:06.687Z,54.05
2022-09-21T21:57:37.185Z,54.82
2022-09-21T22:00:07.470Z,54.42
2022-09-21T22:02:37.414Z,54.38
2022-09-21T22:05:08.063Z,54.04
2022-09-21T22:07:39.012Z,53.49
2022-09-21T22:10:10.475Z,54.12
2022-09-21T22:12:41.064Z,53.53
2022-09-21T22:15:11.081Z,53.23
2022-09-21T22:17:41.654Z,53.21
2022-09-21T22:20:11.963Z,53.47
2022-09-21T22:22:42.469Z,53.14
2022-09-21T22:25:12.625Z,54.25
2022-09-21T22:27:42.749Z,53.99
2022-09-21T22:30:13.735Z,54.06
2022-09-21T22:32:43.985Z,54.70
2022-09-21T22:35:14.775Z,53.67
2022-09-21T22:37:44.955Z,53.70
2022-09-21T22:40:15.722Z,53.85
2022-09-21T22:42:48.401Z,54.16
2022-09-21T22:45:19.326Z,54.64
2022-09-21T22:47:53.886Z,54.13
2022-09-21T22:50:24.638Z,55.61
2022-09-21T22:52:55.123Z,53.74
2022-09-21T22:55:25.406Z,53.28
2022-09-21T22:57:55.546Z,52.56
2022-09-21T23:00:26.833Z,53.81
2022-09-21T23:02:58.440Z,53.87
2022-09-21T23:05:29.315Z,53.17
2022-09-21T23:08:02.860Z,52.35
2022-09-21T23:10:33.186Z,53.18
2022-09-21T23:13:03.729Z,52.59
2022-09-21T23:15:33.876Z,53.11
2022-09-21T23:18:04.348Z,53.51
2022-09-21T23:20:35.044Z,53.35
2022-09-21T23:23:05.181Z,53.84
2022-09-21T23:25:35.559Z,53.38
2022-09-21T23:28:05.743Z,53.57
2022-09-21T23:30:35.989Z,54.07
2022-09-21T23:33:06.711Z,53.37
2022-09-21T23:35:39.807Z,53.45
2022-09-21T23:38:10.268Z,53.42
2022-09-21T23:40:41.368Z,53.22
2022-09-21T23:43:13.008Z,53.92
2022-09-21T23:45:44.651Z,54.24
2022-09-21T23:48:15.043Z,53.60
2022-09-21T23:50:46.039Z,53.78
2022-09-21T23:53:16.427Z,53.90
2022-09-21T23:55:46.668Z,56.28
2022-09-21T23:58:17.071Z,54.84
